Time;durP1;ratioP1;P1;durP2;ratioP2;P2;SDS_P1;SDS_P2;PMS_P1;PMS_P2;Temp;Humidity;BMP_temperature;BMP_pressure;BME280_temperature;BME280_humidity;BME280_pressure;Samples;Min_cycle;Max_cycle;Signal;HPM_P1;HPM_P2
2022/01/03 00:01:36;;;;;;;9.10;2.63;;;;;;;;;;5093789;28;20421;-66
2022/01/03 00:04:02;;;;;;;3.47;2.93;;;;;;;;;;5093514;28;20453;-65
2022/01/03 00:06:28;;;;;;;5.90;2.90;;;;;;;;;;5093603;28;20410;-67
2022/01/03 00:08:54;;;;;;;4.80;3.13;;;;;;;;;;5093384;28;20902;-65
2022/01/03 00:11:21;;;;;;;5.65;3.00;;;;;;;;;;5093208;28;20500;-71
2022/01/03 00:13:49;;;;;;;3.37;2.80;;;;;;;;;;5093654;28;20629;-67
2022/01/03 00:16:16;;;;;;;2.77;2.57;;;;;;;;;;5093316;28;20480;-67
2022/01/03 00:18:43;;;;;;;4.33;2.93;;;;;;;;;;5093831;28;20469;-68
2022/01/03 00:21:13;;;;;;;3.00;2.30;;;;;;;;;;5093533;28;20413;-67
2022/01/03 00:23:40;;;;;;;5.93;2.80;;;;;;;;;;5093473;28;20425;-69
2022/01/03 00:26:07;;;;;;;3.10;2.30;;;;;;;;;;5093494;28;20433;-67
2022/01/03 00:28:35;;;;;;;5.67;2.23;;;;;;;;;;5093482;28;20409;-66
2022/01/03 00:31:01;;;;;;;5.80;2.57;;;;;;;;;;5093438;28;20413;-66
2022/01/03 00:33:27;;;;;;;2.37;2.27;;;;;;;;;;5093403;28;20930;-67
2022/01/03 00:35:54;;;;;;;8.30;3.30;;;;;;;;;;5093382;28;20409;-67
2022/01/03 00:38:22;;;;;;;3.67;3.03;;;;;;;;;;5092094;28;20432;-66
2022/01/03 00:40:49;;;;;;;3.07;2.10;;;;;;;;;;5093296;28;20911;-66
2022/01/03 00:43:16;;;;;;;6.73;2.13;;;;;;;;;;5093333;28;20910;-67
2022/01/03 00:45:42;;;;;;;11.13;3.40;;;;;;;;;;5093233;28;20755;-67
2022/01/03 00:48:09;;;;;;;2.47;2.10;;;;;;;;;;5091909;28;20899;-70
2022/01/03 00:50:36;;;;;;;3.00;2.57;;;;;;;;;;5093271;28;20799;-70
2022/01/03 00:53:02;;;;;;;3.27;2.40;;;;;;;;;;5093283;28;20410;-69
2022/01/03 00:55:28;;;;;;;4.10;2.73;;;;;;;;;;5093190;28;20401;-67
2022/01/03 00:57:57;;;;;;;5.57;2.50;;;;;;;;;;5091919;28;20476;-70
2022/01/03 01:00:23;;;;;;;5.30;2.60;;;;;;;;;;5093089;28;20400;-68
2022/01/03 01:02:51;;;;;;;5.50;2.50;;;;;;;;;;5093156;28;20406;-67
2022/01/03 01:05:18;;;;;;;3.83;2.80;;;;;;;;;;5093145;28;20883;-70
2022/01/03 01:07:46;;;;;;;4.10;2.50;;;;;;;;;;5093162;28;20455;-66
2022/01/03 01:10:12;;;;;;;5.13;3.00;;;;;;;;;;5093100;28;20401;-68
2022/01/03 01:12:39;;;;;;;6.43;2.50;;;;;;;;;;5093138;28;20401;-68
2022/01/03 01:15:05;;;;;;;6.93;2.77;;;;;;;;;;5092927;28;20462;-69
2022/01/03 01:17:31;;;;;;;5.57;2.90;;;;;;;;;;5092920;28;21062;-70
2022/01/03 01:19:58;;;;;;;8.30;2.80;;;;;;;;;;5093581;28;20496;-67
2022/01/03 01:22:24;;;;;;;5.83;2.27;;;;;;;;;;5096719;28;20911;-66
2022/01/03 01:25:11;;;;;;;5.93;2.47;;;;;;;;;;5095414;28;20405;-66
2022/01/03 01:27:49;;;;;;;4.17;2.87;;;;;;;;;;5096520;28;20515;-67
2022/01/03 01:30:16;;;;;;;3.43;2.53;;;;;;;;;;5096612;28;20840;-67
2022/01/03 01:32:43;;;;;;;10.43;2.90;;;;;;;;;;5095278;28;20892;-66
2022/01/03 01:35:09;;;;;;;3.87;3.10;;;;;;;;;;5096417;28;20880;-67
2022/01/03 01:37:37;;;;;;;2.73;2.40;;;;;;;;;;5096344;28;20982;-66
2022/01/03 01:40:03;;;;;;;3.03;2.03;;;;;;;;;;5096389;28;20402;-67
2022/01/03 01:42:30;;;;;;;6.93;2.53;;;;;;;;;;5096307;28;20405;-67
2022/01/03 01:45:01;;;;;;;7.10;3.07;;;;;;;;;;5096542;28;20412;-66
2022/01/03 01:47:27;;;;;;;4.63;3.23;;;;;;;;;;5096227;28;20804;-66
2022/01/03 01:49:54;;;;;;;2.70;2.50;;;;;;;;;;5096340;28;20600;-67
2022/01/03 01:52:21;;;;;;;3.37;2.17;;;;;;;;;;5096173;28;20396;-68
2022/01/03 01:54:55;;;;;;;5.47;2.43;;;;;;;;;;5096324;28;20789;-70
2022/01/03 01:57:21;;;;;;;5.57;2.27;;;;;;;;;;5094734;28;20556;-68
2022/01/03 01:59:57;;;;;;;2.77;2.07;;;;;;;;;;5096066;28;20418;-67
2022/01/03 02:02:30;;;;;;;5.33;2.70;;;;;;;;;;5095899;28;20413;-70
2022/01/03 02:05:08;;;;;;;6.87;2.90;;;;;;;;;;5095868;28;20393;-70
2022/01/03 02:07:53;;;;;;;3.63;1.83;;;;;;;;;;5095904;28;20432;-67
2022/01/03 02:10:24;;;;;;;8.93;2.30;;;;;;;;;;5095887;28;20479;-67
2022/01/03 02:12:50;;;;;;;5.03;1.93;;;;;;;;;;5095782;28;20415;-67
2022/01/03 02:15:17;;;;;;;3.37;2.03;;;;;;;;;;5095554;28;20451;-67
2022/01/03 02:17:44;;;;;;;3.63;2.13;;;;;;;;;;5095686;28;20472;-67
2022/01/03 02:20:18;;;;;;;5.37;1.93;;;;;;;;;;5095754;28;20496;-68
2022/01/03 02:22:44;;;;;;;2.80;2.50;;;;;;;;;;5095609;28;20412;-68
2022/01/03 02:25:11;;;;;;;2.83;2.50;;;;;;;;;;5095572;28;20767;-69
2022/01/03 02:27:38;;;;;;;6.23;2.13;;;;;;;;;;5095550;28;20952;-70
2022/01/03 02:30:06;;;;;;;4.30;2.20;;;;;;;;;;5095182;28;20484;-69
2022/01/03 02:32:32;;;;;;;5.17;2.50;;;;;;;;;;5095439;28;20412;-69
2022/01/03 02:34:58;;;;;;;7.03;2.20;;;;;;;;;;5095694;28;20401;-68
2022/01/03 02:37:24;;;;;;;5.80;2.57;;;;;;;;;;5095639;28;20465;-69
2022/01/03 02:39:51;;;;;;;5.07;2.23;;;;;;;;;;5095300;28;20835;-67
2022/01/03 02:42:23;;;;;;;5.90;2.13;;;;;;;;;;5095558;28;20470;-67
2022/01/03 02:45:04;;;;;;;5.90;2.30;;;;;;;;;;5095260;28;20405;-66
2022/01/03 02:47:30;;;;;;;7.57;2.43;;;;;;;;;;5095089;28;20470;-67
2022/01/03 02:49:56;;;;;;;3.67;2.30;;;;;;;;;;5095048;28;20397;-66
2022/01/03 02:52:22;;;;;;;6.20;2.20;;;;;;;;;;5095076;28;20492;-66
2022/01/03 02:54:49;;;;;;;3.63;1.63;;;;;;;;;;5093779;28;20417;-66
2022/01/03 02:57:15;;;;;;;11.47;3.00;;;;;;;;;;5093549;28;20510;-66
2022/01/03 02:59:41;;;;;;;4.50;2.50;;;;;;;;;;5094999;28;20484;-66
2022/01/03 03:02:07;;;;;;;5.87;2.40;;;;;;;;;;5094795;28;20420;-66
2022/01/03 03:04:48;;;;;;;2.87;2.13;;;;;;;;;;5094857;28;20401;-66
2022/01/03 03:07:20;;;;;;;2.57;2.00;;;;;;;;;;5093577;28;20459;-66
2022/01/03 03:09:46;;;;;;;11.03;3.20;;;;;;;;;;5094718;28;20405;-68
2022/01/03 03:12:12;;;;;;;4.43;2.60;;;;;;;;;;5094707;28;20409;-67
2022/01/03 03:14:38;;;;;;;2.57;2.30;;;;;;;;;;5094658;28;20412;-66
2022/01/03 03:17:05;;;;;;;3.80;2.33;;;;;;;;;;5094202;28;21002;-67
2022/01/03 03:19:31;;;;;;;13.33;2.90;;;;;;;;;;5094509;28;20406;-67
2022/01/03 03:21:57;;;;;;;9.47;3.00;;;;;;;;;;5093270;28;20421;-67
2022/01/03 03:24:23;;;;;;;6.00;2.17;;;;;;;;;;5094527;28;20775;-66
2022/01/03 03:26:49;;;;;;;4.63;2.10;;;;;;;;;;5094373;28;20597;-67
2022/01/03 03:29:15;;;;;;;3.43;2.07;;;;;;;;;;5094333;28;20409;-66
2022/01/03 03:31:42;;;;;;;3.80;2.50;;;;;;;;;;5094238;28;20416;-67
2022/01/03 03:34:08;;;;;;;5.83;2.30;;;;;;;;;;5094488;28;20813;-68
2022/01/03 03:36:34;;;;;;;5.70;2.30;;;;;;;;;;5092826;28;20551;-67
2022/01/03 03:39:01;;;;;;;5.70;2.60;;;;;;;;;;5094116;28;20893;-67
2022/01/03 03:41:27;;;;;;;3.30;1.87;;;;;;;;;;5092842;28;20746;-66
2022/01/03 03:43:53;;;;;;;8.30;2.30;;;;;;;;;;5093876;28;20419;-67
2022/01/03 03:46:19;;;;;;;4.70;1.90;;;;;;;;;;5092677;28;20796;-67
2022/01/03 03:48:45;;;;;;;4.20;2.03;;;;;;;;;;5093990;28;20412;-66
2022/01/03 03:51:10;;;;;;;5.10;2.70;;;;;;;;;;5093957;28;20409;-66
2022/01/03 03:53:37;;;;;;;3.60;2.20;;;;;;;;;;5093929;28;20892;-66
2022/01/03 03:56:03;;;;;;;5.73;2.30;;;;;;;;;;5093848;28;20401;-67
2022/01/03 03:58:29;;;;;;;3.90;1.93;;;;;;;;;;5093830;28;20406;-66
2022/01/03 04:00:55;;;;;;;7.77;2.33;;;;;;;;;;5093872;28;20420;-67
2022/01/03 04:03:21;;;;;;;5.03;2.23;;;;;;;;;;5093783;28;20444;-71
2022/01/03 04:05:47;;;;;;;4.80;2.30;;;;;;;;;;5093824;28;20500;-67
2022/01/03 04:08:13;;;;;;;13.23;2.77;;;;;;;;;;5092469;28;20916;-67
2022/01/03 04:10:39;;;;;;;5.97;2.40;;;;;;;;;;5093685;28;20413;-68
2022/01/03 04:13:05;;;;;;;6.60;2.50;;;;;;;;;;5092463;28;20425;-67
2022/01/03 04:15:31;;;;;;;5.50;2.03;;;;;;;;;;5092241;28;20471;-66
2022/01/03 04:17:57;;;;;;;5.20;2.23;;;;;;;;;;5093551;28;20947;-68
2022/01/03 04:20:25;;;;;;;5.77;2.80;;;;;;;;;;5093715;28;20401;-67
2022/01/03 04:22:51;;;;;;;4.90;2.17;;;;;;;;;;5093636;28;20450;-67
2022/01/03 04:25:17;;;;;;;9.50;2.17;;;;;;;;;;5093631;28;20397;-67
2022/01/03 04:27:43;;;;;;;2.83;1.73;;;;;;;;;;5093440;28;20822;-66
2022/01/03 04:30:09;;;;;;;8.20;2.47;;;;;;;;;;5093607;28;20540;-67
2022/01/03 04:32:35;;;;;;;6.70;2.20;;;;;;;;;;5093403;28;20421;-66
2022/01/03 04:35:01;;;;;;;5.00;2.33;;;;;;;;;;5093334;28;20400;-68
2022/01/03 04:37:27;;;;;;;8.43;3.50;;;;;;;;;;5093346;28;20468;-67
2022/01/03 04:39:53;;;;;;;5.13;1.93;;;;;;;;;;5093748;28;20752;-65
2022/01/03 04:42:19;;;;;;;7.03;2.30;;;;;;;;;;5093371;28;20401;-66
2022/01/03 04:44:45;;;;;;;12.60;2.60;;;;;;;;;;5093313;28;20750;-67
2022/01/03 04:47:11;;;;;;;4.73;2.30;;;;;;;;;;5093534;28;20413;-66
2022/01/03 04:49:37;;;;;;;5.33;1.87;;;;;;;;;;5093272;28;20941;-67
2022/01/03 04:52:03;;;;;;;5.10;1.90;;;;;;;;;;5093347;28;20512;-67
2022/01/03 04:54:29;;;;;;;7.53;2.20;;;;;;;;;;5096244;28;20827;-66
2022/01/03 04:56:59;;;;;;;7.40;2.20;;;;;;;;;;5097255;28;20500;-67
2022/01/03 04:59:25;;;;;;;6.40;2.57;;;;;;;;;;5095961;28;20464;-67
2022/01/03 05:01:51;;;;;;;5.90;2.27;;;;;;;;;;5097133;28;20452;-66
2022/01/03 05:04:17;;;;;;;7.93;2.17;;;;;;;;;;5097114;28;20408;-66
2022/01/03 05:06:43;;;;;;;5.47;2.50;;;;;;;;;;5097038;28;20446;-67
2022/01/03 05:09:09;;;;;;;7.43;2.33;;;;;;;;;;5097094;28;20887;-66
2022/01/03 05:11:35;;;;;;;7.33;2.43;;;;;;;;;;5097002;28;20412;-66
2022/01/03 05:14:01;;;;;;;5.40;2.13;;;;;;;;;;5096920;28;20951;-66
2022/01/03 05:16:27;;;;;;;3.07;1.90;;;;;;;;;;5096754;28;20502;-67
2022/01/03 05:18:53;;;;;;;4.57;2.00;;;;;;;;;;5096838;28;20487;-66
2022/01/03 05:21:20;;;;;;;5.60;2.30;;;;;;;;;;5095569;28;20445;-66
2022/01/03 05:23:47;;;;;;;1.87;1.70;;;;;;;;;;5096664;28;20393;-67
2022/01/03 05:26:14;;;;;;;4.97;1.63;;;;;;;;;;5096771;28;20485;-66
2022/01/03 05:28:40;;;;;;;4.07;2.30;;;;;;;;;;5096020;28;20403;-65
2022/01/03 05:31:08;;;;;;;6.90;2.03;;;;;;;;;;5095474;28;20179;-67
2022/01/03 05:33:34;;;;;;;12.03;2.57;;;;;;;;;;5096627;28;20888;-66
2022/01/03 05:36:00;;;;;;;5.50;1.90;;;;;;;;;;5096472;28;20923;-66
2022/01/03 05:38:26;;;;;;;5.40;2.07;;;;;;;;;;5096656;28;20409;-66
2022/01/03 05:40:52;;;;;;;6.33;2.00;;;;;;;;;;5096522;28;20450;-66
2022/01/03 05:43:18;;;;;;;5.33;2.20;;;;;;;;;;5096449;28;20424;-66
2022/01/03 05:45:44;;;;;;;6.73;2.00;;;;;;;;;;5096397;28;20416;-65
2022/01/03 05:48:10;;;;;;;6.30;2.17;;;;;;;;;;5096316;28;20489;-66
2022/01/03 05:50:36;;;;;;;3.53;2.03;;;;;;;;;;5096300;28;20754;-66
2022/01/03 05:53:02;;;;;;;5.80;2.10;;;;;;;;;;5096198;28;20411;-66
2022/01/03 05:55:29;;;;;;;12.30;2.17;;;;;;;;;;5096178;28;20426;-66
2022/01/03 05:57:55;;;;;;;6.43;2.30;;;;;;;;;;5095997;28;20529;-67
2022/01/03 06:00:24;;;;;;;12.33;2.10;;;;;;;;;;5096018;28;20748;-66
2022/01/03 06:02:54;;;;;;;3.77;1.90;;;;;;;;;;5096055;28;20767;-70
2022/01/03 06:05:38;;;;;;;5.30;2.27;;;;;;;;;;5094026;28;20424;-69
2022/01/03 06:08:05;;;;;;;6.13;2.20;;;;;;;;;;5096048;28;20409;-66
2022/01/03 06:10:31;;;;;;;3.50;2.37;;;;;;;;;;5095868;28;20405;-66
2022/01/03 06:12:57;;;;;;;3.37;1.77;;;;;;;;;;5095845;28;20495;-67
2022/01/03 06:15:24;;;;;;;6.90;1.70;;;;;;;;;;5095614;28;20460;-68
2022/01/03 06:17:51;;;;;;;3.17;1.57;;;;;;;;;;5095960;28;20487;-69
2022/01/03 06:20:17;;;;;;;8.57;2.50;;;;;;;;;;5095706;28;20436;-67
2022/01/03 06:22:43;;;;;;;6.40;1.80;;;;;;;;;;5095693;28;20402;-67
2022/01/03 06:25:10;;;;;;;3.00;1.80;;;;;;;;;;5095626;28;20398;-66
2022/01/03 06:27:37;;;;;;;3.63;1.90;;;;;;;;;;5095561;28;20409;-67
2022/01/03 06:30:04;;;;;;;8.10;2.10;;;;;;;;;;5094183;28;20983;-66
2022/01/03 06:32:30;;;;;;;6.03;1.90;;;;;;;;;;5094158;28;20424;-66
2022/01/03 06:34:56;;;;;;;3.90;1.90;;;;;;;;;;5094018;28;20425;-66
2022/01/03 06:37:22;;;;;;;7.93;2.40;;;;;;;;;;5095282;28;20953;-66
2022/01/03 06:39:48;;;;;;;2.10;1.90;;;;;;;;;;5095277;28;20404;-66
2022/01/03 06:42:14;;;;;;;5.50;1.83;;;;;;;;;;5095304;28;20880;-66
2022/01/03 06:44:43;;;;;;;4.63;1.80;;;;;;;;;;5095228;28;20402;-66
2022/01/03 06:47:09;;;;;;;4.90;1.60;;;;;;;;;;5095051;28;20507;-66
2022/01/03 06:49:35;;;;;;;2.10;1.73;;;;;;;;;;5095103;28;20425;-67
2022/01/03 06:52:01;;;;;;;7.40;2.90;;;;;;;;;;5095134;28;20486;-66
2022/01/03 06:54:27;;;;;;;5.90;2.30;;;;;;;;;;5095041;28;20970;-66
2022/01/03 06:56:54;;;;;;;5.27;2.00;;;;;;;;;;5094938;28;20480;-66
2022/01/03 06:59:20;;;;;;;2.77;1.90;;;;;;;;;;5093696;28;20417;-66
2022/01/03 07:01:46;;;;;;;4.80;2.10;;;;;;;;;;5094886;28;20425;-66
2022/01/03 07:04:12;;;;;;;11.40;1.70;;;;;;;;;;5094837;28;20398;-68
2022/01/03 07:06:38;;;;;;;7.93;2.10;;;;;;;;;;5094852;28;20512;-67
2022/01/03 07:09:06;;;;;;;3.33;1.60;;;;;;;;;;5094771;28;20412;-69
2022/01/03 07:11:33;;;;;;;6.43;2.00;;;;;;;;;;5094764;28;20500;-67
2022/01/03 07:19:40;;;;;;;6.97;2.10;;;;;;;;;;5094804;28;20476;-66
2022/01/03 07:22:07;;;;;;;6.97;1.80;;;;;;;;;;5094519;28;20496;-68
2022/01/03 07:24:34;;;;;;;7.23;2.30;;;;;;;;;;5094516;28;20397;-68
2022/01/03 07:27:07;;;;;;;3.30;2.10;;;;;;;;;;5094468;28;20495;-66
2022/01/03 07:29:33;;;;;;;6.17;1.60;;;;;;;;;;5093067;28;20465;-66
2022/01/03 07:32:00;;;;;;;4.00;1.70;;;;;;;;;;5094294;28;20428;-67
2022/01/03 07:34:26;;;;;;;3.13;2.00;;;;;;;;;;5094516;28;20857;-66
2022/01/03 07:36:52;;;;;;;4.90;2.00;;;;;;;;;;5094156;28;20457;-67
2022/01/03 07:39:18;;;;;;;4.73;1.67;;;;;;;;;;5094242;28;20892;-68
2022/01/03 07:41:44;;;;;;;4.77;1.77;;;;;;;;;;5094264;28;20766;-71
2022/01/03 07:44:10;;;;;;;10.47;1.80;;;;;;;;;;5094082;28;20467;-68
2022/01/03 07:46:36;;;;;;;6.23;2.47;;;;;;;;;;5094048;28;20915;-70
2022/01/03 07:49:03;;;;;;;7.77;2.07;;;;;;;;;;5094015;28;20401;-69
2022/01/03 07:51:29;;;;;;;4.10;1.83;;;;;;;;;;5094137;28;20417;-70
2022/01/03 07:53:55;;;;;;;7.27;2.23;;;;;;;;;;5093932;28;20809;-70
2022/01/03 07:56:21;;;;;;;5.53;2.00;;;;;;;;;;5093847;28;20409;-68
2022/01/03 07:58:47;;;;;;;10.20;2.07;;;;;;;;;;5093840;28;20405;-68
2022/01/03 08:01:13;;;;;;;2.87;1.73;;;;;;;;;;5093809;28;20417;-69
2022/01/03 08:03:39;;;;;;;4.57;2.20;;;;;;;;;;5093740;28;20401;-69
2022/01/03 08:06:07;;;;;;;1.63;1.53;;;;;;;;;;5093726;28;20412;-67
2022/01/03 08:08:33;;;;;;;4.97;2.17;;;;;;;;;;5093694;28;20405;-68
2022/01/03 08:10:59;;;;;;;7.80;2.50;;;;;;;;;;5093720;28;20390;-65
2022/01/03 08:13:25;;;;;;;8.37;2.40;;;;;;;;;;5093644;28;20405;-67
2022/01/03 08:15:50;;;;;;;6.07;3.40;;;;;;;;;;5093440;28;20549;-66
2022/01/03 08:18:17;;;;;;;2.73;1.80;;;;;;;;;;5092196;28;20461;-67
2022/01/03 08:20:44;;;;;;;7.27;2.40;;;;;;;;;;5093458;28;20402;-67
2022/01/03 08:23:10;;;;;;;3.43;1.97;;;;;;;;;;5093505;28;20911;-66
2022/01/03 08:25:38;;;;;;;7.70;1.80;;;;;;;;;;5093486;28;20775;-66
2022/01/03 08:28:06;;;;;;;7.83;2.47;;;;;;;;;;5093189;28;20489;-66
2022/01/03 08:30:32;;;;;;;4.97;2.33;;;;;;;;;;5093540;28;20429;-66
2022/01/03 08:32:58;;;;;;;6.33;2.00;;;;;;;;;;5093374;28;20492;-66
2022/01/03 08:35:24;;;;;;;9.00;2.10;;;;;;;;;;5093659;28;20436;-66
2022/01/03 08:37:51;;;;;;;7.53;2.20;;;;;;;;;;5093518;28;20541;-66
2022/01/03 08:40:18;;;;;;;4.13;2.20;;;;;;;;;;5093336;28;20938;-65
2022/01/03 08:42:44;;;;;;;4.57;1.80;;;;;;;;;;5093347;28;20397;-66
2022/01/03 08:45:10;;;;;;;13.77;2.80;;;;;;;;;;5093347;28;20397;-66
2022/01/03 08:47:36;;;;;;;9.50;2.87;;;;;;;;;;5093242;28;20460;-67
2022/01/03 08:50:03;;;;;;;4.87;1.77;;;;;;;;;;5093240;28;20401;-66
2022/01/03 08:52:30;;;;;;;8.00;2.20;;;;;;;;;;5093078;28;20755;-66
2022/01/03 08:54:56;;;;;;;7.57;2.10;;;;;;;;;;5093284;28;20397;-69
2022/01/03 08:57:22;;;;;;;10.47;2.20;;;;;;;;;;5093093;28;20452;-66
2022/01/03 08:59:49;;;;;;;3.57;2.13;;;;;;;;;;5093303;28;20480;-67
2022/01/03 09:02:16;;;;;;;9.40;2.43;;;;;;;;;;5093150;28;20401;-68
2022/01/03 09:04:42;;;;;;;9.47;2.10;;;;;;;;;;5093103;28;20408;-67
2022/01/03 09:07:09;;;;;;;3.13;1.80;;;;;;;;;;5093113;28;20397;-67
2022/01/03 09:09:35;;;;;;;6.67;2.33;;;;;;;;;;5091834;28;20503;-66
2022/01/03 09:12:01;;;;;;;7.20;2.50;;;;;;;;;;5093123;28;20410;-67
2022/01/03 09:14:27;;;;;;;2.30;2.10;;;;;;;;;;5093001;28;20433;-67
2022/01/03 09:16:53;;;;;;;4.23;2.33;;;;;;;;;;5092717;28;20480;-67
2022/01/03 09:19:19;;;;;;;5.00;1.63;;;;;;;;;;5093124;28;20393;-67
2022/01/03 09:21:45;;;;;;;7.80;2.10;;;;;;;;;;5092892;28;20413;-66
2022/01/03 09:29:29;;;;;;;7.33;2.40;;;;;;;;;;5093030;28;20961;-66
2022/01/03 09:31:55;;;;;;;5.37;2.43;;;;;;;;;;5092837;28;20413;-68
2022/01/03 09:34:21;;;;;;;6.07;2.30;;;;;;;;;;5092983;28;20397;-66
2022/01/03 09:36:47;;;;;;;2.20;2.00;;;;;;;;;;5092831;28;20456;-66
2022/01/03 09:39:13;;;;;;;5.60;2.40;;;;;;;;;;5092837;28;20416;-66
2022/01/03 09:41:42;;;;;;;2.93;2.23;;;;;;;;;;5095510;28;20401;-67
2022/01/03 09:44:11;;;;;;;4.47;2.30;;;;;;;;;;5096248;28;20417;-67
2022/01/03 09:46:41;;;;;;;3.53;2.50;;;;;;;;;;5096201;28;20424;-63
2022/01/03 09:49:08;;;;;;;3.43;2.00;;;;;;;;;;5096202;28;20504;-67
2022/01/03 09:51:34;;;;;;;7.40;2.20;;;;;;;;;;5096289;28;20408;-65
2022/01/03 09:54:01;;;;;;;5.30;2.03;;;;;;;;;;5096269;28;20488;-66
2022/01/03 09:56:30;;;;;;;5.10;2.43;;;;;;;;;;5096034;28;20484;-65
2022/01/03 09:58:56;;;;;;;4.97;2.57;;;;;;;;;;5095956;28;20443;-64
2022/01/03 10:01:23;;;;;;;7.90;2.63;;;;;;;;;;5095936;28;20467;-66
2022/01/03 10:03:49;;;;;;;6.73;2.40;;;;;;;;;;5094633;28;20439;-66
2022/01/03 10:06:16;;;;;;;13.03;2.83;;;;;;;;;;5095834;28;20496;-66
2022/01/03 10:08:43;;;;;;;5.30;2.33;;;;;;;;;;5096162;28;20504;-66
2022/01/03 10:11:09;;;;;;;6.27;2.63;;;;;;;;;;5095892;28;20441;-65
2022/01/03 10:13:35;;;;;;;6.77;2.13;;;;;;;;;;5095758;28;20420;-66
2022/01/03 10:16:01;;;;;;;6.23;2.40;;;;;;;;;;5095647;28;20955;-65
2022/01/03 10:18:27;;;;;;;6.93;2.30;;;;;;;;;;5095591;28;20492;-66
2022/01/03 10:20:56;;;;;;;4.50;2.80;;;;;;;;;;5095711;28;20416;-66
2022/01/03 10:23:22;;;;;;;5.90;2.37;;;;;;;;;;5095719;28;20490;-66
2022/01/03 10:25:49;;;;;;;5.47;2.90;;;;;;;;;;5095770;28;20401;-65
2022/01/03 10:28:25;;;;;;;4.17;1.80;;;;;;;;;;5094293;28;20474;-65
2022/01/03 10:30:52;;;;;;;6.07;2.57;;;;;;;;;;5095404;28;20459;-65
2022/01/03 10:33:19;;;;;;;5.80;2.63;;;;;;;;;;5095414;28;20410;-65
2022/01/03 10:35:49;;;;;;;3.13;2.20;;;;;;;;;;5095334;28;20745;-65
2022/01/03 10:38:32;;;;;;;8.10;2.87;;;;;;;;;;5095328;28;20460;-64
2022/01/03 10:41:14;;;;;;;4.70;2.60;;;;;;;;;;5095217;28;20437;-65
2022/01/03 10:43:41;;;;;;;6.60;2.30;;;;;;;;;;5095549;28;20498;-64
2022/01/03 10:46:26;;;;;;;8.53;2.80;;;;;;;;;;5095127;28;20500;-65
2022/01/03 10:48:56;;;;;;;9.10;2.17;;;;;;;;;;5095065;28;20491;-66
2022/01/03 10:51:26;;;;;;;3.90;2.30;;;;;;;;;;5094954;28;20427;-66
2022/01/03 10:53:54;;;;;;;8.90;2.90;;;;;;;;;;5095054;28;20402;-66
2022/01/03 10:56:28;;;;;;;6.43;2.23;;;;;;;;;;5094918;28;20892;-65
2022/01/03 10:58:54;;;;;;;4.43;2.03;;;;;;;;;;5094955;28;20788;-65
2022/01/03 11:01:24;;;;;;;6.23;2.07;;;;;;;;;;5094835;28;20921;-67
2022/01/03 11:03:50;;;;;;;9.20;2.40;;;;;;;;;;5094951;28;20409;-69
2022/01/03 11:11:40;;;;;;;5.10;2.73;;;;;;;;;;5094905;28;20409;-69
2022/01/03 11:14:07;;;;;;;4.10;2.40;;;;;;;;;;5094753;28;20775;-67
2022/01/03 11:16:41;;;;;;;3.60;2.50;;;;;;;;;;5093110;28;20559;-66
2022/01/03 11:19:07;;;;;;;3.53;1.93;;;;;;;;;;5094576;28;20438;-64
2022/01/03 11:21:36;;;;;;;3.63;2.30;;;;;;;;;;5094567;28;20876;-66
2022/01/03 11:24:09;;;;;;;7.90;2.50;;;;;;;;;;5094459;28;20429;-65
2022/01/03 11:26:35;;;;;;;9.00;2.70;;;;;;;;;;5094370;28;20879;-66
2022/01/03 11:29:02;;;;;;;7.53;2.50;;;;;;;;;;5094444;28;20432;-67
2022/01/03 11:31:32;;;;;;;5.83;2.93;;;;;;;;;;5094299;28;20453;-68
2022/01/03 11:33:58;;;;;;;8.83;1.97;;;;;;;;;;5094318;28;20393;-67
2022/01/03 11:36:25;;;;;;;7.20;2.30;;;;;;;;;;5094263;28;20508;-67
2022/01/03 11:38:51;;;;;;;8.57;2.20;;;;;;;;;;5094440;28;20416;-67
2022/01/03 11:41:18;;;;;;;5.60;2.30;;;;;;;;;;5094173;28;20401;-66
2022/01/03 11:43:44;;;;;;;11.07;2.67;;;;;;;;;;5094174;28;20809;-70
2022/01/03 11:46:11;;;;;;;7.60;2.67;;;;;;;;;;5093990;28;20413;-67
2022/01/03 11:48:37;;;;;;;9.30;2.43;;;;;;;;;;5094023;28;20435;-67
2022/01/03 11:51:08;;;;;;;6.53;2.53;;;;;;;;;;5094025;28;20949;-67
2022/01/03 11:53:35;;;;;;;9.93;2.80;;;;;;;;;;5093897;28;20406;-68
2022/01/03 11:56:04;;;;;;;5.83;2.57;;;;;;;;;;5093874;28;20416;-68
2022/01/03 11:58:49;;;;;;;8.20;2.60;;;;;;;;;;5092474;28;20547;-68
2022/01/03 12:04:10;;;;;;;7.30;2.90;;;;;;;;;;5093408;28;20408;-68
2022/01/03 12:06:36;;;;;;;7.87;2.37;;;;;;;;;;5093844;28;20409;-70
2022/01/03 12:09:12;;;;;;;3.40;2.00;;;;;;;;;;5093786;28;20402;-72
2022/01/03 12:11:43;;;;;;;5.50;2.00;;;;;;;;;;5093731;28;20389;-69
2022/01/03 12:14:10;;;;;;;3.80;1.90;;;;;;;;;;5093717;28;20402;-69
2022/01/03 12:16:41;;;;;;;5.30;2.00;;;;;;;;;;5093269;28;20511;-69
2022/01/03 12:19:10;;;;;;;3.50;1.90;;;;;;;;;;5093518;28;20417;-68
2022/01/03 12:21:48;;;;;;;10.47;3.00;;;;;;;;;;5093528;28;20428;-68
2022/01/03 12:24:26;;;;;;;7.40;2.70;;;;;;;;;;5093570;28;20409;-68
2022/01/03 12:27:11;;;;;;;3.97;1.80;;;;;;;;;;5093809;28;20393;-68
2022/01/03 12:29:56;;;;;;;2.30;2.00;;;;;;;;;;5093384;28;20405;-67
2022/01/03 12:32:29;;;;;;;4.10;2.00;;;;;;;;;;5093698;28;20456;-65
2022/01/03 12:35:18;;;;;;;4.90;1.73;;;;;;;;;;5093441;28;20864;-68
2022/01/03 12:37:53;;;;;;;6.00;2.00;;;;;;;;;;5091997;28;20480;-67
2022/01/03 12:40:25;;;;;;;3.60;2.23;;;;;;;;;;5093368;28;20437;-66
2022/01/03 12:42:51;;;;;;;7.53;2.27;;;;;;;;;;5093237;28;20765;-66
2022/01/03 12:45:29;;;;;;;6.33;2.03;;;;;;;;;;5093423;28;20398;-66
2022/01/03 12:47:56;;;;;;;4.57;1.73;;;;;;;;;;5093094;28;20424;-67
2022/01/03 12:50:27;;;;;;;4.20;2.17;;;;;;;;;;5093326;28;20402;-67
2022/01/03 12:52:54;;;;;;;4.33;1.90;;;;;;;;;;5093395;28;20503;-67
2022/01/03 12:55:38;;;;;;;8.20;2.53;;;;;;;;;;5093184;28;20412;-67
2022/01/03 12:58:24;;;;;;;12.13;2.50;;;;;;;;;;5093074;28;20456;-66
2022/01/03 13:00:52;;;;;;;3.57;2.47;;;;;;;;;;5093220;28;20409;-67
2022/01/03 13:03:28;;;;;;;5.60;2.20;;;;;;;;;;5093183;28;20406;-67
2022/01/03 13:06:06;;;;;;;4.10;1.87;;;;;;;;;;5093189;28;20393;-67
2022/01/03 13:08:36;;;;;;;3.33;1.83;;;;;;;;;;5093105;28;20453;-67
2022/01/03 13:11:04;;;;;;;7.40;1.87;;;;;;;;;;5093192;28;20402;-67
2022/01/03 13:13:30;;;;;;;2.77;1.50;;;;;;;;;;5093071;28;20458;-67
2022/01/03 13:15:57;;;;;;;2.70;1.57;;;;;;;;;;5094681;28;20471;-67
2022/01/03 13:18:23;;;;;;;4.70;1.73;;;;;;;;;;5096822;28;20467;-67
2022/01/03 13:20:55;;;;;;;6.13;1.70;;;;;;;;;;5096884;28;20760;-68
2022/01/03 13:23:24;;;;;;;6.47;2.20;;;;;;;;;;5096842;28;20407;-66
2022/01/03 13:25:50;;;;;;;8.50;1.90;;;;;;;;;;5096768;28;20401;-67
2022/01/03 13:28:16;;;;;;;8.10;1.70;;;;;;;;;;5096717;28;20423;-67
2022/01/03 13:31:00;;;;;;;2.63;1.50;;;;;;;;;;5096653;28;20789;-67
2022/01/03 13:33:26;;;;;;;4.67;2.17;;;;;;;;;;5095482;28;20413;-66
2022/01/03 13:36:02;;;;;;;1.47;1.10;;;;;;;;;;5095344;28;20913;-66
2022/01/03 13:38:28;;;;;;;9.43;2.07;;;;;;;;;;5094987;28;20915;-67
2022/01/03 13:41:13;;;;;;;3.67;2.03;;;;;;;;;;5096424;28;20535;-66
2022/01/03 13:43:42;;;;;;;3.37;2.20;;;;;;;;;;5096406;28;20405;-67
2022/01/03 13:51:20;;;;;;;2.40;1.63;;;;;;;;;;5096324;28;20439;-67
2022/01/03 13:53:53;;;;;;;2.93;2.03;;;;;;;;;;5096246;28;20402;-67
2022/01/03 13:56:19;;;;;;;5.53;1.83;;;;;;;;;;5096063;28;20975;-66
2022/01/03 13:58:45;;;;;;;6.73;1.70;;;;;;;;;;5096100;28;20424;-67
2022/01/03 14:01:12;;;;;;;4.53;1.67;;;;;;;;;;5096046;28;20448;-66
2022/01/03 14:03:39;;;;;;;9.23;2.13;;;;;;;;;;5096040;28;20409;-66
2022/01/03 14:06:18;;;;;;;5.93;1.73;;;;;;;;;;5096045;28;20404;-67
2022/01/03 14:08:45;;;;;;;2.83;1.57;;;;;;;;;;5096124;28;20409;-64
2022/01/03 14:11:15;;;;;;;5.00;2.57;;;;;;;;;;5095936;28;20872;-62
2022/01/03 14:13:41;;;;;;;4.80;1.80;;;;;;;;;;5095808;28;20499;-65
2022/01/03 14:16:08;;;;;;;1.83;1.73;;;;;;;;;;5095675;28;20457;-62
2022/01/03 14:18:45;;;;;;;8.73;2.87;;;;;;;;;;5095913;28;20575;-62
2022/01/03 14:21:11;;;;;;;5.03;2.67;;;;;;;;;;5095715;28;20409;-64
2022/01/03 14:23:41;;;;;;;2.73;1.93;;;;;;;;;;5095515;28;20416;-65
2022/01/03 14:26:11;;;;;;;4.30;2.00;;;;;;;;;;5094779;28;20443;-63
2022/01/03 14:28:39;;;;;;;5.03;1.67;;;;;;;;;;5095525;28;20401;-65
2022/01/03 14:31:05;;;;;;;5.53;2.60;;;;;;;;;;5095736;28;20788;-69
2022/01/03 14:33:32;;;;;;;1.87;1.77;;;;;;;;;;5095912;28;20405;-71
2022/01/03 14:35:58;;;;;;;6.53;1.93;;;;;;;;;;5093947;28;20465;-80
2022/01/03 14:38:27;;;;;;;7.27;2.20;;;;;;;;;;5095188;28;20549;-68
2022/01/03 14:40:54;;;;;;;6.63;2.00;;;;;;;;;;5095196;28;20758;-73
2022/01/03 14:43:21;;;;;;;6.10;1.67;;;;;;;;;;5095210;28;20405;-67
2022/01/03 14:45:49;;;;;;;6.60;1.67;;;;;;;;;;5095091;28;20447;-71
2022/01/03 14:48:19;;;;;;;3.73;1.70;;;;;;;;;;5095167;28;20397;-65
2022/01/03 14:50:45;;;;;;;1.93;1.70;;;;;;;;;;5095164;28;20401;-65
2022/01/03 14:53:11;;;;;;;2.10;1.67;;;;;;;;;;5095159;28;20438;-66
2022/01/03 14:55:37;;;;;;;7.57;1.57;;;;;;;;;;5093851;28;20405;-67
2022/01/03 14:58:04;;;;;;;1.80;1.60;;;;;;;;;;5094854;28;20548;-69
2022/01/03 15:00:31;;;;;;;2.63;2.53;;;;;;;;;;5094993;28;20963;-63
2022/01/03 15:02:57;;;;;;;5.37;2.33;;;;;;;;;;5094803;28;20470;-63
2022/01/03 15:05:23;;;;;;;7.00;2.13;;;;;;;;;;5094918;28;20892;-63
2022/01/03 15:07:49;;;;;;;4.13;2.20;;;;;;;;;;5093582;28;20419;-62
2022/01/03 15:10:17;;;;;;;4.40;3.10;;;;;;;;;;5094716;28;20393;-63
2022/01/03 15:12:43;;;;;;;4.67;3.10;;;;;;;;;;5094684;28;20446;-63